Time;durP1;ratioP1;P1;durP2;ratioP2;P2;SDS_P1;SDS_P2;PMS_P1;PMS_P2;Temp;Humidity;BMP_temperature;BMP_pressure;BME280_temperature;BME280_humidity;BME280_pressure;Samples;Min_cycle;Max_cycle;Signal;HPM_P1;HPM_P2
2023/10/31 00:02:46;;;;;;;;;;;;;;;;;;6296578;28;19908;-82
2023/10/31 00:05:46;;;;;;;;;;;;;;;;;;6294697;28;19908;-82
2023/10/31 00:08:46;;;;;;;;;;;;;;;;;;6314625;28;20371;-82
2023/10/31 00:11:46;;;;;;;;;;;;;;;;;;6297610;28;19915;-83
2023/10/31 00:14:46;;;;;;;;;;;;;;;;;;6316954;28;20358;-83
2023/10/31 00:17:47;;;;;;;;;;;;;;;;;;6300086;28;19920;-83
2023/10/31 00:20:47;;;;;;;;;;;;;;;;;;6313519;28;19923;-83
2023/10/31 00:23:47;;;;;;;;;;;;;;;;;;6300442;28;19913;-83
2023/10/31 00:26:47;;;;;;;;;;;;;;;;;;6308998;28;20358;-83
2023/10/31 00:29:47;;;;;;;;;;;;;;;;;;6300879;28;19967;-84
2023/10/31 00:32:48;;;;;;;;;;;;;;;;;;6307315;28;19991;-84
2023/10/31 00:35:48;;;;;;;;;;;;;;;;;;6306784;28;19954;-84
2023/10/31 00:38:48;;;;;;;;;;;;;;;;;;6304882;28;19913;-83
2023/10/31 00:41:48;;;;;;;;;;;;;;;;;;6303472;28;19958;-84
2023/10/31 00:44:48;;;;;;;;;;;;;;;;;;6309539;28;20006;-84
2023/10/31 00:47:48;;;;;;;;;;;;;;;;;;6304029;28;20425;-84
2023/10/31 00:50:48;;;;;;;;;;;;;;;;;;6302680;28;19961;-84
2023/10/31 00:53:48;;;;;;;;;;;;;;;;;;6311774;28;19920;-84
2023/10/31 00:56:48;;;;;;;;;;;;;;;;;;6291903;28;19920;-79
2023/10/31 00:59:48;;;;;;;;;;;;;;;;;;6310533;28;20034;-79
2023/10/31 01:02:49;;;;;;;;;;;;;;;;;;6305128;28;19912;-79
2023/10/31 01:05:49;;;;;;;;;;;;;;;;;;6309556;28;19923;-79
2023/10/31 01:08:49;;;;;;;;;;;;;;;;;;6300522;28;19938;-80
2023/10/31 01:11:49;;;;;;;;;;;;;;;;;;6298220;28;19913;-80
2023/10/31 01:14:49;;;;;;;;;;;;;;;;;;6298294;28;19917;-81
2023/10/31 01:17:49;;;;;;;;;;;;;;;;;;6316495;28;19919;-81
2023/10/31 01:20:49;;;;;;;;;;;;;;;;;;6307235;28;19923;-81
2023/10/31 01:23:49;;;;;;;;;;;;;;;;;;6314163;28;20345;-81
2023/10/31 01:26:49;;;;;;;;;;;;;;;;;;6310924;28;20348;-81
2023/10/31 01:29:49;;;;;;;;;;;;;;;;;;6306249;28;19972;-81
2023/10/31 01:32:51;;;;;;;;;;;;;;;;;;6314599;28;19912;-81
2023/10/31 01:35:51;;;;;;;;;;;;;;;;;;6311732;28;19958;-81
2023/10/31 01:38:51;;;;;;;;;;;;;;;;;;6303087;28;19916;-81
2023/10/31 01:41:52;;;;;;;;;;;;;;;;;;6301831;28;19949;-81
2023/10/31 01:44:52;;;;;;;;;;;;;;;;;;6311660;28;20285;-81
2023/10/31 01:47:52;;;;;;;;;;;;;;;;;;6310522;28;19909;-80
2023/10/31 01:50:53;;;;;;;;;;;;;;;;;;6307290;28;20432;-80
2023/10/31 01:53:53;;;;;;;;;;;;;;;;;;6309108;28;19912;-80
2023/10/31 01:56:56;;;;;;;;;;;;;;;;;;6306914;28;19920;-81
2023/10/31 01:59:56;;;;;;;;;;;;;;;;;;6303803;28;19919;-81
2023/10/31 02:02:56;;;;;;;;;;;;;;;;;;6301585;28;19917;-80
2023/10/31 02:05:56;;;;;;;;;;;;;;;;;;6301738;28;20302;-81
2023/10/31 02:08:56;;;;;;;;;;;;;;;;;;6314679;28;19916;-81
2023/10/31 02:11:56;;;;;;;;;;;;;;;;;;6314438;28;19912;-82
2023/10/31 02:14:57;;;;;;;;;;;;;;;;;;6301262;28;19917;-82
2023/10/31 02:17:57;;;;;;;;;;;;;;;;;;6302173;28;20007;-84
2023/10/31 02:20:57;;;;;;;;;;;;;;;;;;6311083;28;19919;-84
2023/10/31 02:23:58;;;;;;;;;;;;;;;;;;6294730;28;20306;-84
2023/10/31 02:26:58;;;;;;;;;;;;;;;;;;6308889;28;20425;-84
2023/10/31 02:29:58;;;;;;;;;;;;;;;;;;6298587;28;20550;-84
2023/10/31 02:32:58;;;;;;;;;;;;;;;;;;6304440;28;19981;-84
2023/10/31 02:35:58;;;;;;;;;;;;;;;;;;6304177;28;20378;-84
2023/10/31 02:38:59;;;;;;;;;;;;;;;;;;6305187;28;19913;-84
2023/10/31 02:41:59;;;;;;;;;;;;;;;;;;6311534;28;19919;-84
2023/10/31 02:44:59;;;;;;;;;;;;;;;;;;6305341;28;19913;-84
2023/10/31 02:47:59;;;;;;;;;;;;;;;;;;6309780;28;20003;-85
2023/10/31 02:50:59;;;;;;;;;;;;;;;;;;6316213;28;19919;-84
2023/10/31 02:53:59;;;;;;;;;;;;;;;;;;6295320;28;19916;-84
2023/10/31 02:56:59;;;;;;;;;;;;;;;;;;6305822;28;19931;-84
2023/10/31 02:59:59;;;;;;;;;;;;;;;;;;6313419;28;20519;-83
2023/10/31 03:02:59;;;;;;;;;;;;;;;;;;6305364;28;19912;-84
2023/10/31 03:06:00;;;;;;;;;;;;;;;;;;6313438;28;19912;-84
2023/10/31 03:09:00;;;;;;;;;;;;;;;;;;6312880;28;19995;-85
2023/10/31 03:12:00;;;;;;;;;;;;;;;;;;6300139;28;19908;-85
2023/10/31 03:15:00;;;;;;;;;;;;;;;;;;6311885;28;20017;-85
2023/10/31 03:18:00;;;;;;;;;;;;;;;;;;6307819;28;19920;-84
2023/10/31 03:21:00;;;;;;;;;;;;;;;;;;6306354;28;19994;-84
2023/10/31 03:24:00;;;;;;;;;;;;;;;;;;6306366;28;20378;-84
2023/10/31 03:27:00;;;;;;;;;;;;;;;;;;6302787;28;19951;-84
2023/10/31 03:30:01;;;;;;;;;;;;;;;;;;6321116;28;20014;-85
2023/10/31 03:33:01;;;;;;;;;;;;;;;;;;6313726;28;19912;-85
2023/10/31 03:36:01;;;;;;;;;;;;;;;;;;6324262;28;19908;-84
2023/10/31 03:39:02;;;;;;;;;;;;;;;;;;6307555;28;19916;-81
2023/10/31 03:42:02;;;;;;;;;;;;;;;;;;6311926;28;19908;-81
2023/10/31 03:45:02;;;;;;;;;;;;;;;;;;6318657;28;19908;-81
2023/10/31 03:48:02;;;;;;;;;;;;;;;;;;6319356;28;20279;-81
2023/10/31 03:51:02;;;;;;;;;;;;;;;;;;6304588;28;19924;-81
2023/10/31 03:54:02;;;;;;;;;;;;;;;;;;6287911;28;19960;-81
2023/10/31 03:57:02;;;;;;;;;;;;;;;;;;6309482;28;19943;-81
2023/10/31 04:00:04;;;;;;;;;;;;;;;;;;6302232;28;19970;-80
2023/10/31 04:03:04;;;;;;;;;;;;;;;;;;6299904;28;19982;-81
2023/10/31 04:06:04;;;;;;;;;;;;;;;;;;6324454;28;20349;-80
2023/10/31 04:09:04;;;;;;;;;;;;;;;;;;6303253;28;20378;-81
2023/10/31 04:12:04;;;;;;;;;;;;;;;;;;6306852;28;19916;-81
2023/10/31 04:15:05;;;;;;;;;;;;;;;;;;6317164;28;19912;-80
2023/10/31 04:18:05;;;;;;;;;;;;;;;;;;6313088;28;19923;-81
2023/10/31 04:21:05;;;;;;;;;;;;;;;;;;6321333;28;19922;-80
2023/10/31 04:24:05;;;;;;;;;;;;;;;;;;6313673;28;20489;-80
2023/10/31 04:27:05;;;;;;;;;;;;;;;;;;6296098;28;19934;-80
2023/10/31 04:30:06;;;;;;;;;;;;;;;;;;6289380;28;19919;-79
2023/10/31 04:33:06;;;;;;;;;;;;;;;;;;6289094;28;19919;-80
2023/10/31 04:36:06;;;;;;;;;;;;;;;;;;6319363;28;19918;-80
2023/10/31 04:39:06;;;;;;;;;;;;;;;;;;6303948;28;20313;-80
2023/10/31 04:42:06;;;;;;;;;;;;;;;;;;6315274;28;20051;-80
2023/10/31 04:45:06;;;;;;;;;;;;;;;;;;6315627;28;19965;-80
2023/10/31 04:48:06;;;;;;;;;;;;;;;;;;6307654;28;19974;-80
2023/10/31 04:51:06;;;;;;;;;;;;;;;;;;6303953;28;20500;-80
2023/10/31 04:54:06;;;;;;;;;;;;;;;;;;6311446;28;19923;-80
2023/10/31 04:57:06;;;;;;;;;;;;;;;;;;6306193;28;19924;-80
2023/10/31 05:00:08;;;;;;;;;;;;;;;;;;6311964;28;19916;-80
2023/10/31 05:03:08;;;;;;;;;;;;;;;;;;6317530;28;19918;-80
2023/10/31 05:06:08;;;;;;;;;;;;;;;;;;6306755;28;19917;-80
2023/10/31 05:09:10;;;;;;;;;;;;;;;;;;6299606;28;19916;-80
2023/10/31 05:12:10;;;;;;;;;;;;;;;;;;6301193;28;19915;-80
2023/10/31 05:15:10;;;;;;;;;;;;;;;;;;6313299;28;19913;-80
2023/10/31 05:18:11;;;;;;;;;;;;;;;;;;6308176;28;19961;-80
2023/10/31 05:21:11;;;;;;;;;;;;;;;;;;6313763;28;20022;-80
2023/10/31 05:24:11;;;;;;;;;;;;;;;;;;6306921;28;19952;-81
2023/10/31 05:27:11;;;;;;;;;;;;;;;;;;6308650;28;20199;-80
2023/10/31 05:30:11;;;;;;;;;;;;;;;;;;6310874;28;19915;-80
2023/10/31 05:33:11;;;;;;;;;;;;;;;;;;6305667;28;19943;-79
2023/10/31 05:36:11;;;;;;;;;;;;;;;;;;6314405;28;19912;-79
2023/10/31 05:39:11;;;;;;;;;;;;;;;;;;6288316;28;20760;-79
2023/10/31 05:42:12;;;;;;;;;;;;;;;;;;6308050;28;20074;-80
2023/10/31 05:45:12;;;;;;;;;;;;;;;;;;6297567;28;19953;-80
2023/10/31 05:48:14;;;;;;;;;;;;;;;;;;6308966;28;19912;-80
2023/10/31 05:51:14;;;;;;;;;;;;;;;;;;6300843;28;20276;-79
2023/10/31 05:54:14;;;;;;;;;;;;;;;;;;6292576;28;19920;-80
2023/10/31 05:57:14;;;;;;;;;;;;;;;;;;6297157;28;19928;-80
2023/10/31 06:00:15;;;;;;;;;;;;;;;;;;6306073;28;19956;-80
2023/10/31 06:03:15;;;;;;;;;;;;;;;;;;6297980;28;19924;-79
2023/10/31 06:06:15;;;;;;;;;;;;;;;;;;6302939;28;20011;-80
2023/10/31 06:09:15;;;;;;;;;;;;;;;;;;6312312;28;19957;-85
2023/10/31 06:12:15;;;;;;;;;;;;;;;;;;6301012;28;20289;-87
2023/10/31 06:15:15;;;;;;;;;;;;;;;;;;6319805;28;19919;-86
2023/10/31 06:18:16;;;;;;;;;;;;;;;;;;6306557;28;20432;-85
2023/10/31 06:21:16;;;;;;;;;;;;;;;;;;6310740;28;20030;-85
2023/10/31 06:24:16;;;;;;;;;;;;;;;;;;6311920;28;19963;-85
2023/10/31 06:27:16;;;;;;;;;;;;;;;;;;6309508;28;20315;-80
2023/10/31 06:30:16;;;;;;;;;;;;;;;;;;6307086;28;20374;-80
2023/10/31 06:33:16;;;;;;;;;;;;;;;;;;6314448;28;20323;-79
2023/10/31 06:36:16;;;;;;;;;;;;;;;;;;6309374;28;20357;-79
2023/10/31 06:39:16;;;;;;;;;;;;;;;;;;6306510;28;19958;-80
2023/10/31 06:42:16;;;;;;;;;;;;;;;;;;6302952;28;20294;-79
2023/10/31 06:45:17;;;;;;;;;;;;;;;;;;6308010;28;19931;-79
2023/10/31 06:48:17;;;;;;;;;;;;;;;;;;6303060;28;19917;-80
2023/10/31 06:51:17;;;;;;;;;;;;;;;;;;6312606;28;20391;-79
2023/10/31 06:54:17;;;;;;;;;;;;;;;;;;6285069;28;19912;-80
2023/10/31 06:57:17;;;;;;;;;;;;;;;;;;6309396;28;19927;-79
2023/10/31 07:00:17;;;;;;;;;;;;;;;;;;6307747;28;19955;-80
2023/10/31 07:03:17;;;;;;;;;;;;;;;;;;6310884;28;19935;-80
2023/10/31 07:06:17;;;;;;;;;;;;;;;;;;6308753;28;19916;-79
2023/10/31 07:09:17;;;;;;;;;;;;;;;;;;6310177;28;19938;-81
2023/10/31 07:12:18;;;;;;;;;;;;;;;;;;6322881;28;19957;-80
2023/10/31 07:15:18;;;;;;;;;;;;;;;;;;6312169;28;20011;-80
2023/10/31 07:18:18;;;;;;;;;;;;;;;;;;6281150;28;19950;-80
2023/10/31 07:21:18;;;;;;;;;;;;;;;;;;6301113;28;20438;-80
2023/10/31 07:24:18;;;;;;;;;;;;;;;;;;6319019;28;19915;-80
2023/10/31 07:27:18;;;;;;;;;;;;;;;;;;6314612;28;19957;-80
2023/10/31 07:30:19;;;;;;;;;;;;;;;;;;6317543;28;19919;-80
2023/10/31 07:33:19;;;;;;;;;;;;;;;;;;6304314;28;19908;-80
2023/10/31 07:36:19;;;;;;;;;;;;;;;;;;6313082;28;19913;-80
2023/10/31 07:39:20;;;;;;;;;;;;;;;;;;6306571;28;19999;-79
2023/10/31 07:42:20;;;;;;;;;;;;;;;;;;6300577;28;19916;-80
2023/10/31 07:45:20;;;;;;;;;;;;;;;;;;6315234;28;19920;-79
2023/10/31 07:48:20;;;;;;;;;;;;;;;;;;6317443;28;20019;-79
2023/10/31 07:51:20;;;;;;;;;;;;;;;;;;6289016;28;19917;-79
2023/10/31 07:54:21;;;;;;;;;;;;;;;;;;6310688;28;19912;-80
2023/10/31 07:57:21;;;;;;;;;;;;;;;;;;6309286;28;19924;-81
2023/10/31 08:00:21;;;;;;;;;;;;;;;;;;6318247;28;20011;-79
2023/10/31 08:03:22;;;;;;;;;;;;;;;;;;6298669;28;19913;-79
2023/10/31 08:06:22;;;;;;;;;;;;;;;;;;6311737;28;19999;-80
2023/10/31 08:09:22;;;;;;;;;;;;;;;;;;6318519;28;19912;-80
2023/10/31 08:12:22;;;;;;;;;;;;;;;;;;6315419;28;19975;-80
2023/10/31 08:15:22;;;;;;;;;;;;;;;;;;6312148;28;19916;-80
2023/10/31 08:18:23;;;;;;;;;;;;;;;;;;6309832;28;19914;-81
2023/10/31 08:21:23;;;;;;;;;;;;;;;;;;6308834;28;19916;-80
2023/10/31 08:24:23;;;;;;;;;;;;;;;;;;6314112;28;20010;-81
2023/10/31 08:27:23;;;;;;;;;;;;;;;;;;6312247;28;19995;-81
2023/10/31 08:30:23;;;;;;;;;;;;;;;;;;6283797;28;19920;-81
2023/10/31 08:33:23;;;;;;;;;;;;;;;;;;6293454;28;19919;-81
2023/10/31 08:36:23;;;;;;;;;;;;;;;;;;6314386;28;20488;-82
2023/10/31 08:39:23;;;;;;;;;;;;;;;;;;6302948;28;19920;-81
2023/10/31 08:42:23;;;;;;;;;;;;;;;;;;6315154;28;20461;-80
2023/10/31 08:45:24;;;;;;;;;;;;;;;;;;6310428;28;20027;-79
2023/10/31 08:48:24;;;;;;;;;;;;;;;;;;6300317;28;19916;-80
2023/10/31 08:51:24;;;;;;;;;;;;;;;;;;6310269;28;20044;-80
2023/10/31 08:54:24;;;;;;;;;;;;;;;;;;6305652;28;19913;-81
2023/10/31 08:57:25;;;;;;;;;;;;;;;;;;6314689;28;20449;-81
2023/10/31 09:00:26;;;;;;;;;;;;;;;;;;6312339;28;19924;-81
2023/10/31 09:03:27;;;;;;;;;;;;;;;;;;6312363;28;20401;-81
2023/10/31 09:06:27;;;;;;;;;;;;;;;;;;6317586;28;20369;-80
2023/10/31 09:09:27;;;;;;;;;;;;;;;;;;6305931;28;20049;-80
2023/10/31 09:12:27;;;;;;;;;;;;;;;;;;6304237;28;19912;-81
2023/10/31 09:15:27;;;;;;;;;;;;;;;;;;6305510;28;20305;-80
2023/10/31 09:18:27;;;;;;;;;;;;;;;;;;6304380;28;19908;-80
2023/10/31 09:21:27;;;;;;;;;;;;;;;;;;6311570;28;20195;-81
2023/10/31 09:24:27;;;;;;;;;;;;;;;;;;6308714;28;19912;-80
2023/10/31 09:27:28;;;;;;;;;;;;;;;;;;6307570;28;19924;-81
2023/10/31 09:30:28;;;;;;;;;;;;;;;;;;6314157;28;19919;-81
2023/10/31 09:33:28;;;;;;;;;;;;;;;;;;6310423;28;20231;-79
2023/10/31 09:36:28;;;;;;;;;;;;;;;;;;6316767;28;19942;-80
2023/10/31 09:39:28;;;;;;;;;;;;;;;;;;6324443;28;19916;-81
2023/10/31 09:42:28;;;;;;;;;;;;;;;;;;6320031;28;19913;-81
2023/10/31 09:45:28;;;;;;;;;;;;;;;;;;6314616;28;19916;-81
2023/10/31 09:48:29;;;;;;;;;;;;;;;;;;6305229;28;19919;-81
2023/10/31 09:51:29;;;;;;;;;;;;;;;;;;6315372;28;20380;-81
2023/10/31 09:54:29;;;;;;;;;;;;;;;;;;6308345;28;20380;-80
2023/10/31 09:57:29;;;;;;;;;;;;;;;;;;6314254;28;20007;-80
2023/10/31 10:00:29;;;;;;;;;;;;;;;;;;6310401;28;19920;-80
2023/10/31 10:03:30;;;;;;;;;;;;;;;;;;6304423;28;19923;-80
2023/10/31 10:06:32;;;;;;;;;;;;;;;;;;6292548;28;20142;-81
2023/10/31 10:09:32;;;;;;;;;;;;;;;;;;6319254;28;19954;-80
2023/10/31 10:12:33;;;;;;;;;;;;;;;;;;6321567;28;20025;-80
2023/10/31 10:15:33;;;;;;;;;;;;;;;;;;6289577;28;20337;-81
2023/10/31 10:18:35;;;;;;;;;;;;;;;;;;6317790;28;19935;-80
2023/10/31 10:21:35;;;;;;;;;;;;;;;;;;6317661;28;19917;-80
2023/10/31 10:24:35;;;;;;;;;;;;;;;;;;6311615;28;19923;-81
2023/10/31 10:27:36;;;;;;;;;;;;;;;;;;6318453;28;19964;-81
2023/10/31 10:30:36;;;;;;;;;;;;;;;;;;6309154;28;20428;-81
2023/10/31 10:33:36;;;;;;;;;;;;;;;;;;6313272;28;20007;-81
2023/10/31 10:36:36;;;;;;;;;;;;;;;;;;6324181;28;19908;-81
2023/10/31 10:39:36;;;;;;;;;;;;;;;;;;6315561;28;19968;-80
2023/10/31 10:42:36;;;;;;;;;;;;;;;;;;6307860;28;19916;-80
2023/10/31 10:45:36;;;;;;;;;;;;;;;;;;6312078;28;19919;-81
2023/10/31 10:48:37;;;;;;;;;;;;;;;;;;6318899;28;19955;-81
2023/10/31 10:51:37;;;;;;;;;;;;;;;;;;6306641;28;19912;-80
2023/10/31 10:54:37;;;;;;;;;;;;;;;;;;6318122;28;19912;-81
2023/10/31 10:57:38;;;;;;;;;;;;;;;;;;6300405;28;19920;-80
2023/10/31 11:00:39;;;;;;;;;;;;;;;;;;6305016;28;19920;-81
2023/10/31 11:03:40;;;;;;;;;;;;;;;;;;6306955;28;20003;-80
2023/10/31 11:06:40;;;;;;;;;;;;;;;;;;6307110;28;19922;-86
2023/10/31 11:09:40;;;;;;;;;;;;;;;;;;6320845;28;19920;-88
2023/10/31 11:12:40;;;;;;;;;;;;;;;;;;6317947;28;19917;-86
2023/10/31 11:15:40;;;;;;;;;;;;;;;;;;6312937;28;20385;-88
2023/10/31 11:18:40;;;;;;;;;;;;;;;;;;6337943;28;19946;-89
2023/10/31 11:21:40;;;;;;;;;;;;;;;;;;6316822;28;19893;-87
2023/10/31 11:24:41;;;;;;;;;;;;;;;;;;6325962;28;19917;-88
2023/10/31 11:27:41;;;;;;;;;;;;;;;;;;6320260;28;19912;-88
2023/10/31 11:30:42;;;;;;;;;;;;;;;;;;6315922;28;20298;-89
2023/10/31 11:33:43;;;;;;;;;;;;;;;;;;6318951;28;19970;-88
2023/10/31 11:36:43;;;;;;;;;;;;;;;;;;6315065;28;19908;-90
2023/10/31 11:39:43;;;;;;;;;;;;;;;;;;6321921;28;19918;-89
2023/10/31 11:42:44;;;;;;;;;;;;;;;;;;6318941;28;19916;-88
2023/10/31 11:45:47;;;;;;;;;;;;;;;;;;6319034;28;19916;-85
2023/10/31 11:48:47;;;;;;;;;;;;;;;;;;6323160;28;19922;-86
2023/10/31 11:51:47;;;;;;;;;;;;;;;;;;6328600;28;19912;-87
2023/10/31 11:54:48;;;;;;;;;;;;;;;;;;6323527;28;19927;-87
2023/10/31 11:57:48;;;;;;;;;;;;;;;;;;6320587;28;20025;-86
2023/10/31 12:00:49;;;;;;;;;;;;;;;;;;6317973;28;19980;-87
2023/10/31 12:03:49;;;;;;;;;;;;;;;;;;6299830;28;19912;-87
2023/10/31 12:06:49;;;;;;;;;;;;;;;;;;6333803;28;19947;-87
2023/10/31 12:09:49;;;;;;;;;;;;;;;;;;6314337;28;19913;-86
2023/10/31 12:12:49;;;;;;;;;;;;;;;;;;6314275;28;19913;-85
2023/10/31 12:15:50;;;;;;;;;;;;;;;;;;6332176;28;19915;-87
2023/10/31 12:18:50;;;;;;;;;;;;;;;;;;6305957;28;20441;-80
2023/10/31 12:21:50;;;;;;;;;;;;;;;;;;6304826;28;20023;-80
2023/10/31 12:24:50;;;;;;;;;;;;;;;;;;6322183;28;20048;-79
2023/10/31 12:27:51;;;;;;;;;;;;;;;;;;6310747;28;20145;-79
2023/10/31 12:30:51;;;;;;;;;;;;;;;;;;6297344;28;19962;-79
2023/10/31 12:33:51;;;;;;;;;;;;;;;;;;6312811;28;19951;-79
2023/10/31 12:36:51;;;;;;;;;;;;;;;;;;6317475;28;19908;-78
2023/10/31 12:39:52;;;;;;;;;;;;;;;;;;6291095;28;19916;-78
2023/10/31 12:42:52;;;;;;;;;;;;;;;;;;6303104;28;19943;-79
2023/10/31 12:45:52;;;;;;;;;;;;;;;;;;6303197;28;19916;-80
2023/10/31 12:48:52;;;;;;;;;;;;;;;;;;6300375;28;20397;-79
2023/10/31 12:51:52;;;;;;;;;;;;;;;;;;6314766;28;20447;-79
2023/10/31 12:54:53;;;;;;;;;;;;;;;;;;6307797;28;19987;-79
2023/10/31 12:57:53;;;;;;;;;;;;;;;;;;6305964;28;19956;-79
2023/10/31 13:00:55;;;;;;;;;;;;;;;;;;6307697;28;20243;-80
2023/10/31 13:03:55;;;;;;;;;;;;;;;;;;6316250;28;19958;-78
2023/10/31 13:06:55;;;;;;;;;;;;;;;;;;6316454;28;20425;-80
2023/10/31 13:09:55;;;;;;;;;;;;;;;;;;6311171;28;20431;-79
2023/10/31 13:12:56;;;;;;;;;;;;;;;;;;6311528;28;19920;-79
2023/10/31 13:15:56;;;;;;;;;;;;;;;;;;6305507;28;19921;-79
2023/10/31 13:18:56;;;;;;;;;;;;;;;;;;6284611;28;19920;-79
2023/10/31 13:21:56;;;;;;;;;;;;;;;;;;6304006;28;20092;-79
2023/10/31 13:24:56;;;;;;;;;;;;;;;;;;6307752;28;20336;-79
2023/10/31 13:27:56;;;;;;;;;;;;;;;;;;6314407;28;19916;-88
2023/10/31 13:30:57;;;;;;;;;;;;;;;;;;6324612;28;19924;-87
2023/10/31 13:33:57;;;;;;;;;;;;;;;;;;6324062;28;19912;-86
2023/10/31 13:36:57;;;;;;;;;;;;;;;;;;6329870;28;19916;-80
2023/10/31 13:39:58;;;;;;;;;;;;;;;;;;6310369;28;20416;-79
2023/10/31 13:42:58;;;;;;;;;;;;;;;;;;6292196;28;20018;-80
2023/10/31 13:45:58;;;;;;;;;;;;;;;;;;6319578;28;19916;-81
2023/10/31 13:48:58;;;;;;;;;;;;;;;;;;6306934;28;19912;-80
2023/10/31 13:51:58;;;;;;;;;;;;;;;;;;6302792;28;19908;-78
2023/10/31 13:54:59;;;;;;;;;;;;;;;;;;6313755;28;19912;-77
2023/10/31 13:57:59;;;;;;;;;;;;;;;;;;6312233;28;19923;-77
2023/10/31 14:00:59;;;;;;;;;;;;;;;;;;6310227;28;20333;-78
2023/10/31 14:03:59;;;;;;;;;;;;;;;;;;6297270;28;19923;-77
2023/10/31 14:06:59;;;;;;;;;;;;;;;;;;6302028;28;20294;-77
2023/10/31 14:09:59;;;;;;;;;;;;;;;;;;6305206;28;19912;-77
2023/10/31 14:12:59;;;;;;;;;;;;;;;;;;6304836;28;20211;-77
2023/10/31 14:16:00;;;;;;;;;;;;;;;;;;6313633;28;20297;-77
2023/10/31 14:19:01;;;;;;;;;;;;;;;;;;6297285;28;19963;-77
2023/10/31 14:22:01;;;;;;;;;;;;;;;;;;6302120;28;20378;-78
2023/10/31 14:25:04;;;;;;;;;;;;;;;;;;6299386;28;19964;-78
2023/10/31 14:28:04;;;;;;;;;;;;;;;;;;6311027;28;19923;-78
2023/10/31 14:31:04;;;;;;;;;;;;;;;;;;6297794;28;19916;-77
2023/10/31 14:34:05;;;;;;;;;;;;;;;;;;6318023;28;19912;-78
2023/10/31 14:37:06;;;;;;;;;;;;;;;;;;6294527;28;19916;-79
2023/10/31 14:40:06;;;;;;;;;;;;;;;;;;6305552;28;19920;-80
2023/10/31 14:43:06;;;;;;;;;;;;;;;;;;6296215;28;20263;-80
2023/10/31 14:46:07;;;;;;;;;;;;;;;;;;6307722;28;19919;-80
2023/10/31 14:49:08;;;;;;;;;;;;;;;;;;6312901;28;20470;-79
2023/10/31 14:52:08;;;;;;;;;;;;;;;;;;6302920;28;19970;-79
2023/10/31 14:55:09;;;;;;;;;;;;;;;;;;6303644;28;19930;-79
2023/10/31 14:58:09;;;;;;;;;;;;;;;;;;6303884;28;20466;-78
2023/10/31 15:01:09;;;;;;;;;;;;;;;;;;6308308;28;19919;-78
2023/10/31 15:04:11;;;;;;;;;;;;;;;;;;6301181;28;20007;-78
2023/10/31 15:07:11;;;;;;;;;;;;;;;;;;6302950;28;19919;-78
2023/10/31 15:10:12;;;;;;;;;;;;;;;;;;6306608;28;19916;-78
2023/10/31 15:13:12;;;;;;;;;;;;;;;;;;6304950;28;19923;-79
2023/10/31 15:16:12;;;;;;;;;;;;;;;;;;6298857;28;20321;-78
2023/10/31 15:19:12;;;;;;;;;;;;;;;;;;6318111;28;19969;-78
2023/10/31 15:22:12;;;;;;;;;;;;;;;;;;6312033;28;19912;-78
2023/10/31 15:25:12;;;;;;;;;;;;;;;;;;6307578;28;19911;-78
2023/10/31 15:28:12;;;;;;;;;;;;;;;;;;6317067;28;19912;-79
2023/10/31 15:31:13;;;;;;;;;;;;;;;;;;6313302;28;19935;-79
2023/10/31 15:34:15;;;;;;;;;;;;;;;;;;6319663;28;20369;-79
2023/10/31 15:37:15;;;;;;;;;;;;;;;;;;6300297;28;19989;-79
2023/10/31 15:40:15;;;;;;;;;;;;;;;;;;6297717;28;20125;-79
2023/10/31 15:43:15;;;;;;;;;;;;;;;;;;6314741;28;19922;-80
2023/10/31 15:46:16;;;;;;;;;;;;;;;;;;6305367;28;19912;-82
2023/10/31 15:49:17;;;;;;;;;;;;;;;;;;6315941;28;19916;-82
2023/10/31 15:52:17;;;;;;;;;;;;;;;;;;6307794;28;19916;-80
2023/10/31 15:55:17;;;;;;;;;;;;;;;;;;6308559;28;19916;-80
2023/10/31 15:58:17;;;;;;;;;;;;;;;;;;6308381;28;19951;-79
2023/10/31 16:01:18;;;;;;;;;;;;;;;;;;6308793;28;19916;-80
2023/10/31 16:04:19;;;;;;;;;;;;;;;;;;6289445;28;19952;-81
2023/10/31 16:07:20;;;;;;;;;;;;;;;;;;6313593;28;19917;-81
2023/10/31 16:10:20;;;;;;;;;;;;;;;;;;6315332;28;20283;-81
2023/10/31 16:13:20;;;;;;;;;;;;;;;;;;6303049;28;19938;-82
2023/10/31 16:16:20;;;;;;;;;;;;;;;;;;6314934;28;19916;-80
2023/10/31 16:19:20;;;;;;;;;;;;;;;;;;6317422;28;19920;-80
2023/10/31 16:22:21;;;;;;;;;;;;;;;;;;6315547;28;19916;-81
2023/10/31 16:25:21;;;;;;;;;;;;;;;;;;6307298;28;19919;-81
2023/10/31 16:28:21;;;;;;;;;;;;;;;;;;6292643;28;20686;-79
2023/10/31 16:31:22;;;;;;;;;;;;;;;;;;6292106;28;20039;-80
2023/10/31 16:34:22;;;;;;;;;;;;;;;;;;6315932;28;20328;-79
2023/10/31 16:37:22;;;;;;;;;;;;;;;;;;6299664;28;19919;-78
2023/10/31 16:40:24;;;;;;;;;;;;;;;;;;6306708;28;19916;-78
2023/10/31 16:43:24;;;;;;;;;;;;;;;;;;6311936;28;19912;-79
2023/10/31 16:46:24;;;;;;;;;;;;;;;;;;6312470;28;19920;-78
2023/10/31 16:49:24;;;;;;;;;;;;;;;;;;6311546;28;19992;-78
2023/10/31 16:52:24;;;;;;;;;;;;;;;;;;6313958;28;19978;-79
2023/10/31 16:55:24;;;;;;;;;;;;;;;;;;6305909;28;19916;-79
2023/10/31 16:58:24;;;;;;;;;;;;;;;;;;6304838;28;20023;-79
2023/10/31 17:01:24;;;;;;;;;;;;;;;;;;6319861;28;19920;-79
2023/10/31 17:04:24;;;;;;;;;;;;;;;;;;6303334;28;20297;-79
2023/10/31 17:07:25;;;;;;;;;;;;;;;;;;6318181;28;19916;-79
2023/10/31 17:10:25;;;;;;;;;;;;;;;;;;6304550;28;19954;-79
2023/10/31 17:13:25;;;;;;;;;;;;;;;;;;6302154;28;19935;-79
2023/10/31 17:16:26;;;;;;;;;;;;;;;;;;6303205;28;19919;-79
2023/10/31 17:19:26;;;;;;;;;;;;;;;;;;6296301;28;20409;-80
2023/10/31 17:22:26;;;;;;;;;;;;;;;;;;6299822;28;19916;-80
2023/10/31 17:25:26;;;;;;;;;;;;;;;;;;6295565;28;19948;-79
2023/10/31 17:28:27;;;;;;;;;;;;;;;;;;6313620;28;20290;-79
2023/10/31 17:31:27;;;;;;;;;;;;;;;;;;6308147;28;20338;-79
2023/10/31 17:34:27;;;;;;;;;;;;;;;;;;6285503;28;20374;-79
2023/10/31 17:37:27;;;;;;;;;;;;;;;;;;6311997;28;19940;-82
2023/10/31 17:40:27;;;;;;;;;;;;;;;;;;6308539;28;19966;-81
2023/10/31 17:43:28;;;;;;;;;;;;;;;;;;6310802;28;20361;-81
2023/10/31 17:46:28;;;;;;;;;;;;;;;;;;6304488;28;19916;-82
2023/10/31 17:49:29;;;;;;;;;;;;;;;;;;6301898;28;19944;-83
2023/10/31 17:52:29;;;;;;;;;;;;;;;;;;6308372;28;19912;-83
2023/10/31 17:55:29;;;;;;;;;;;;;;;;;;6298502;28;19916;-83
2023/10/31 17:58:29;;;;;;;;;;;;;;;;;;6305902;28;19930;-83
2023/10/31 18:01:29;;;;;;;;;;;;;;;;;;6302216;28;19916;-83
2023/10/31 18:04:31;;;;;;;;;;;;;;;;;;6303565;28;19916;-83
2023/10/31 18:07:31;;;;;;;;;;;;;;;;;;6313019;28;19912;-83
2023/10/31 18:10:31;;;;;;;;;;;;;;;;;;6294705;28;19986;-82
2023/10/31 18:13:31;;;;;;;;;;;;;;;;;;6311934;28;20382;-83
2023/10/31 18:16:31;;;;;;;;;;;;;;;;;;6300046;28;19939;-84
2023/10/31 18:19:31;;;;;;;;;;;;;;;;;;6301785;28;19916;-83
2023/10/31 18:22:34;;;;;;;;;;;;;;;;;;6298667;28;19916;-83
2023/10/31 18:25:34;;;;;;;;;;;;;;;;;;6310924;28;20392;-85
2023/10/31 18:28:35;;;;;;;;;;;;;;;;;;6317399;28;19919;-83
2023/10/31 18:31:36;;;;;;;;;;;;;;;;;;6300505;28;19927;-84
2023/10/31 18:34:36;;;;;;;;;;;;;;;;;;6302156;28;20347;-84
2023/10/31 18:37:36;;;;;;;;;;;;;;;;;;6298143;28;19920;-83
2023/10/31 18:40:36;;;;;;;;;;;;;;;;;;6307908;28;19968;-82
2023/10/31 18:43:36;;;;;;;;;;;;;;;;;;6308780;28;19920;-81
2023/10/31 18:46:36;;;;;;;;;;;;;;;;;;6302179;28;19952;-77
2023/10/31 18:49:36;;;;;;;;;;;;;;;;;;6297717;28;20144;-77
2023/10/31 18:52:38;;;;;;;;;;;;;;;;;;6310303;28;19920;-77
2023/10/31 18:55:38;;;;;;;;;;;;;;;;;;6305077;28;19950;-77
2023/10/31 18:58:40;;;;;;;;;;;;;;;;;;6293930;28;19925;-78
2023/10/31 19:01:41;;;;;;;;;;;;;;;;;;6302498;28;20412;-77
2023/10/31 19:04:41;;;;;;;;;;;;;;;;;;6304503;28;19919;-77
2023/10/31 19:07:41;;;;;;;;;;;;;;;;;;6302041;28;20299;-77
2023/10/31 19:10:47;;;;;;;;;;;;;;;;;;6297709;28;19917;-78
2023/10/31 19:13:47;;;;;;;;;;;;;;;;;;6289113;28;19916;-77
2023/10/31 19:16:47;;;;;;;;;;;;;;;;;;6310874;28;19908;-78
2023/10/31 19:19:47;;;;;;;;;;;;;;;;;;6303646;28;20058;-78
2023/10/31 19:22:47;;;;;;;;;;;;;;;;;;6314024;28;19958;-78
2023/10/31 19:25:48;;;;;;;;;;;;;;;;;;6311383;28;19913;-78
2023/10/31 19:28:48;;;;;;;;;;;;;;;;;;6320393;28;19912;-80
2023/10/31 19:31:48;;;;;;;;;;;;;;;;;;6289580;28;19950;-78
2023/10/31 19:34:49;;;;;;;;;;;;;;;;;;6316829;28;20448;-79
2023/10/31 19:37:49;;;;;;;;;;;;;;;;;;6316478;28;20034;-79
2023/10/31 19:40:49;;;;;;;;;;;;;;;;;;6309498;28;19982;-79
2023/10/31 19:43:49;;;;;;;;;;;;;;;;;;6312383;28;19958;-79
2023/10/31 19:46:50;;;;;;;;;;;;;;;;;;6310793;28;20395;-79
2023/10/31 19:49:50;;;;;;;;;;;;;;;;;;6303453;28;19916;-79
2023/10/31 19:52:51;;;;;;;;;;;;;;;;;;6300960;28;19915;-78
2023/10/31 19:55:51;;;;;;;;;;;;;;;;;;6318441;28;20301;-80
2023/10/31 19:58:51;;;;;;;;;;;;;;;;;;6312155;28;19925;-79
2023/10/31 20:01:51;;;;;;;;;;;;;;;;;;6308769;28;19912;-80
2023/10/31 20:04:51;;;;;;;;;;;;;;;;;;6310765;28;19912;-79
2023/10/31 20:07:51;;;;;;;;;;;;;;;;;;6312752;28;20007;-79
2023/10/31 20:10:51;;;;;;;;;;;;;;;;;;6313442;28;20289;-79
2023/10/31 20:13:52;;;;;;;;;;;;;;;;;;6312384;28;19923;-79
2023/10/31 20:16:52;;;;;;;;;;;;;;;;;;6309521;28;19919;-79
2023/10/31 20:19:52;;;;;;;;;;;;;;;;;;6308890;28;19916;-79
2023/10/31 20:22:52;;;;;;;;;;;;;;;;;;6283835;28;20003;-79
2023/10/31 20:25:52;;;;;;;;;;;;;;;;;;6304375;28;19916;-79
2023/10/31 20:28:52;;;;;;;;;;;;;;;;;;6313719;28;19912;-79
2023/10/31 20:31:55;;;;;;;;;;;;;;;;;;6312147;28;19919;-79